Terminal Aerodrome Forecast
Issued by NWS Blacksburg, VA

Home | Current Version | Previous Version | Text Only | Print | Product List | Glossary On
Versions: 1 2 3 4 5 6 7 8 9 10 11 12 13 14 15 16 17 18 19 20 21 22 23 24
543
FTUS41 KRNK 242321
TAFLYH
TAF
KLYH 242321Z 2500/2524 20006KT P6SM SCT080
      TEMPO 2509/2512 5SM BR
     FM251300 20003KT P6SM SCT040 BKN120
     FM251900 21005KT P6SM SCT050=

USA.gov is the U.S. government's official web portal to all federal, state and local government web resources and services.